Middleton Island, AK

6:37 AM AKDT on September 20, 2014 (GMT -0800)
Seward | Change Station
CLOSE
Current Station
Airport
Location: Seward,
Elevation: 20 ft
Nearby Weather Stations

Elev 20 ft 60.13 °N, 149.42 °W | Updated 44 minutes ago

Overcast
Overcast
47 °F
Feels Like 47 °F
N
0
Wind Variable Wind from North

Today
High -- | Low -- °F
--% Chance of Precip.
Yesterday
High -- | Low -- °F
Precip. -- in
7:25 AM 7:50 PM
Waning Crescent, 12% visible
Pressure 29.56 in
Visibility 10.0 miles
Clouds Mostly Cloudy 5000 ft
Overcast 6000 ft
Dew Point 45 °F
Humidity 93%
Rainfall 0.19 in
Snow Depth 2 in , 0 in , 0 in
UV 0 out of 12
Pollen Not available.
Air Quality Not available.
Flu Activity Not available.
METAR PAWD 201353Z AUTO 00000KT 10SM BKN050 OVC060 08/07 A2956 RMK AO2 SLP009 T00830072 TSNO

More Conditions Fewer Conditions

Pressure 29.56 in
Visibility 10.0 miles
Clouds Mostly Cloudy 5000 ft
Overcast 6000 ft
Dew Point 45 °F
Humidity 93%
Rainfall 0.19 in
Snow Depth 2 in , 0 in , 0 in
UV 0 out of 12
Pollen Not available.
Air Quality Not available.
Flu Activity Not available.
METAR PAWD 201353Z AUTO 00000KT 10SM BKN050 OVC060 08/07 A2956 RMK AO2 SLP009 T00830072 TSNO

More Conditions Fewer Conditions

10-Day Weather Forecast

Almanac

Astronomy

Sep. 20, 2014 Rise Set
Actual Time 7:25 AM AKDT 7:50 PM AKDT
Civil Twilight 6:44 AM AKDT 8:31 PM AKDT
Nautical Twilight 5:54 AM AKDT 9:20 PM AKDT
Astronomical Twilight 5:00 AM AKDT 10:14 PM AKDT
Moon 3:36 AM AKDT 6:28 PM AKDT
Length of Visible Light 13h 46m
Length of Day
12h 24m
Tomorrow will be 5m 16s shorter.
Waning Crescent, 12% of the Moon is Illuminated
Today
Waning Crescent
Sep 24
New
Oct 1
First Quarter
Oct 8
Full
Oct 15
Last Quarter

Today's Extremes

State Highs State Lows

Community

WunderPhotos

Upload Photos

1,754,872 photos uploaded!

WunderBlogs® & News

Nearby

Snow Depth

Station Depth Elevation
Atigun Pass 2 in 4800 ft
Coldfoot 0 in 1040 ft
Grouse Creek Divide 0 in 700 ft
Grandview 0 in 1100 ft
Long Lake 0 in 820 ft

Earthquake Activity

City Distance Mag. Time & Date
No recent earthquake activity has been reported nearby.
Minimum magnitude displayed is 2.5.

Coastal Water Temperatures

Place Temperature
No Stations Reporting

Nearby Weather Stations